createdAt,value
2023-04-27T00:00:22.158Z,98633.75
2023-04-27T00:03:24.900Z,98633.22
2023-04-27T00:06:29.006Z,98634.84
2023-04-27T00:09:31.492Z,98635.94
2023-04-27T00:12:34.067Z,98624.22
2023-04-27T00:15:36.548Z,98625.38
2023-04-27T00:18:39.063Z,98617.66
2023-04-27T00:21:42.960Z,98614.47
2023-04-27T00:24:45.837Z,98628.41
2023-04-27T00:27:48.998Z,98615.06
2023-04-27T00:30:54.337Z,98616.53
2023-04-27T00:33:56.943Z,98611.53
2023-04-27T00:37:00.857Z,98612.63
2023-04-27T00:40:05.891Z,98610.06
2023-04-27T00:43:08.395Z,98606.56
2023-04-27T00:46:11.248Z,98605.13
2023-04-27T00:49:13.939Z,98607.22
2023-04-27T00:52:18.104Z,98596.31
2023-04-27T00:55:21.040Z,98602.56
2023-04-27T00:58:23.637Z,98609.34
2023-04-27T01:01:26.903Z,98599.84
2023-04-27T01:04:30.028Z,98602.69
2023-04-27T01:07:34.466Z,98600.63
2023-04-27T01:10:37.471Z,98594.03
2023-04-27T01:13:40.024Z,98605.59
2023-04-27T01:16:42.658Z,98603.78
2023-04-27T01:19:45.279Z,98600.28
2023-04-27T01:22:49.168Z,98607.44
2023-04-27T01:25:53.007Z,98614.22
2023-04-27T01:28:55.577Z,98609.06
2023-04-27T01:31:58.165Z,98605.66
2023-04-27T01:35:00.669Z,98609.47
2023-04-27T01:38:03.256Z,98597.56
2023-04-27T01:41:09.072Z,98606.38
2023-04-27T01:44:12.085Z,98605.97
2023-04-27T01:47:16.434Z,98606.84
2023-04-27T01:50:18.948Z,98606.56
2023-04-27T01:53:21.872Z,98613.78
2023-04-27T01:56:25.855Z,98608.16
2023-04-27T01:59:28.629Z,98617.13
2023-04-27T02:02:31.215Z,98622.59
2023-04-27T02:05:33.821Z,98620.84
2023-04-27T02:08:36.430Z,98617.13
2023-04-27T02:11:40.263Z,98622.22
2023-04-27T02:14:42.779Z,98626.34
2023-04-27T02:17:46.114Z,98629.56
2023-04-27T02:20:48.694Z,98630.50
2023-04-27T02:23:51.552Z,98636.44
2023-04-27T02:26:55.385Z,98629.88
2023-04-27T02:29:57.882Z,98636.50
2023-04-27T02:33:01.090Z,98638.00
2023-04-27T02:36:03.706Z,98633.03
2023-04-27T02:39:06.238Z,98637.81
2023-04-27T02:42:10.158Z,98639.09
2023-04-27T02:45:12.810Z,98637.16
2023-04-27T02:48:15.403Z,98643.13
2023-04-27T02:51:17.950Z,98642.22
2023-04-27T02:54:20.409Z,98646.34
2023-04-27T02:57:24.395Z,98651.47
2023-04-27T03:00:27.126Z,98649.56
2023-04-27T03:03:29.857Z,98651.78
2023-04-27T03:06:32.382Z,98657.22
2023-04-27T03:09:34.923Z,98644.63
2023-04-27T03:12:38.792Z,98654.81
2023-04-27T03:15:41.373Z,98651.34
2023-04-27T03:18:43.912Z,98643.19
2023-04-27T03:21:46.383Z,98640.47
2023-04-27T03:24:48.877Z,98643.69
2023-04-27T03:27:52.932Z,98655.41
2023-04-27T03:30:55.519Z,98656.47
2023-04-27T03:33:58.106Z,98652.03
2023-04-27T03:37:00.805Z,98650.13
2023-04-27T03:40:07.193Z,98639.84
2023-04-27T03:43:11.129Z,98641.69
2023-04-27T03:46:13.657Z,98645.09
2023-04-27T03:49:16.433Z,98651.56
2023-04-27T03:52:19.186Z,98649.16
2023-04-27T03:55:22.001Z,98647.72
2023-04-27T03:58:25.892Z,98649.94
2023-04-27T04:01:28.623Z,98650.75
2023-04-27T04:04:31.363Z,98656.38
2023-04-27T04:07:34.408Z,98651.72
2023-04-27T04:10:37.000Z,98656.38
2023-04-27T04:13:42.137Z,98658.50
2023-04-27T04:16:44.597Z,98655.44
2023-04-27T04:19:47.129Z,98656.88
2023-04-27T04:22:49.742Z,98656.88
2023-04-27T04:25:52.725Z,98659.78
2023-04-27T04:28:57.149Z,98668.16
2023-04-27T04:31:59.740Z,98664.50
2023-04-27T04:35:02.408Z,98667.03
2023-04-27T04:38:04.904Z,98667.06
2023-04-27T04:41:07.345Z,98665.34
2023-04-27T04:44:11.515Z,98673.91
2023-04-27T04:47:14.001Z,98680.13
2023-04-27T04:50:16.853Z,98676.34
2023-04-27T04:53:19.532Z,98673.19
2023-04-27T04:56:22.146Z,98671.81
2023-04-27T04:59:26.087Z,98672.34
2023-04-27T05:02:28.780Z,98673.97
2023-04-27T05:05:31.447Z,98675.03
2023-04-27T05:08:34.116Z,98680.69
2023-04-27T05:11:36.656Z,98681.06
2023-04-27T05:14:40.585Z,98676.41
2023-04-27T05:17:43.059Z,98681.44
2023-04-27T05:20:45.826Z,98676.00
2023-04-27T05:23:48.698Z,98680.19
2023-04-27T05:26:51.228Z,98674.56
2023-04-27T05:29:55.089Z,98675.69
2023-04-27T05:32:57.739Z,98681.66
2023-04-27T05:36:00.309Z,98685.16
2023-04-27T05:39:02.884Z,98689.81
2023-04-27T05:42:06.041Z,98690.63
2023-04-27T05:45:10.954Z,98699.78
2023-04-27T05:48:14.163Z,98693.50
2023-04-27T05:51:17.589Z,98701.66
2023-04-27T05:54:20.151Z,98694.66
2023-04-27T05:57:22.832Z,98691.22
2023-04-27T06:00:26.980Z,98700.75
2023-04-27T06:03:30.571Z,98708.72
2023-04-27T06:06:33.984Z,98706.34
2023-04-27T06:09:36.728Z,98712.97
2023-04-27T06:12:39.669Z,98707.66
2023-04-27T06:15:43.542Z,98714.38
2023-04-27T06:18:46.048Z,98710.06
2023-04-27T06:21:48.528Z,98708.59
2023-04-27T06:24:51.065Z,98712.81
2023-04-27T06:27:53.591Z,98715.59
2023-04-27T06:30:57.879Z,98712.38
2023-04-27T06:34:01.193Z,98725.81
2023-04-27T06:37:03.885Z,98724.75
2023-04-27T06:40:08.231Z,98725.03
2023-04-27T06:43:11.078Z,98723.94
2023-04-27T06:46:15.064Z,98732.91
2023-04-27T06:49:17.608Z,98721.69
2023-04-27T06:52:20.416Z,98723.63
2023-04-27T06:55:23.810Z,98725.47
2023-04-27T06:58:27.195Z,98727.81
2023-04-27T07:01:31.213Z,98737.41
2023-04-27T07:04:33.990Z,98740.16
2023-04-27T07:07:36.583Z,98746.34
2023-04-27T07:10:39.125Z,98732.81
2023-04-27T07:13:41.841Z,98739.50
2023-04-27T07:16:46.613Z,98732.78
2023-04-27T07:19:49.407Z,98735.41
2023-04-27T07:22:52.013Z,98732.69
2023-04-27T07:25:54.827Z,98727.28
2023-04-27T07:28:57.589Z,98733.25
2023-04-27T07:32:01.428Z,98728.00
2023-04-27T07:35:05.692Z,98725.03
2023-04-27T07:38:08.506Z,98725.81
2023-04-27T07:41:11.112Z,98725.31
2023-04-27T07:44:13.670Z,98719.81
2023-04-27T07:47:18.648Z,98720.31
2023-04-27T07:50:24.426Z,98716.06
2023-04-27T07:53:27.312Z,98713.09
2023-04-27T07:56:29.820Z,98717.38
2023-04-27T07:59:32.691Z,98727.38
2023-04-27T08:02:36.750Z,98718.13
2023-04-27T08:05:39.850Z,98719.41
2023-04-27T08:08:42.768Z,98714.69
2023-04-27T08:11:45.641Z,98725.22
2023-04-27T08:14:48.243Z,98718.22
2023-04-27T08:17:52.379Z,98720.41
2023-04-27T08:20:55.065Z,98717.13
2023-04-27T08:23:57.622Z,98709.84
2023-04-27T08:27:00.213Z,98709.59
2023-04-27T08:30:02.746Z,98707.00
2023-04-27T08:33:06.828Z,98704.53
2023-04-27T08:36:09.996Z,98698.78
2023-04-27T08:39:12.967Z,98698.66
2023-04-27T08:42:16.112Z,98692.53
2023-04-27T08:45:19.774Z,98685.63
2023-04-27T08:48:23.736Z,98688.94
2023-04-27T08:51:27.556Z,98683.13
2023-04-27T08:54:30.986Z,98686.47
2023-04-27T08:57:33.618Z,98683.41
2023-04-27T09:00:40.216Z,98678.78
2023-04-27T09:03:46.834Z,98687.16
2023-04-27T09:06:50.077Z,98686.41
2023-04-27T09:10:03.757Z,98678.72
2023-04-27T09:13:06.619Z,98684.94
2023-04-27T09:16:09.206Z,98679.19
2023-04-27T09:19:13.902Z,98691.22
2023-04-27T09:22:16.678Z,98687.88
2023-04-27T09:25:26.689Z,98698.88
2023-04-27T09:28:30.912Z,98699.00
2023-04-27T09:31:34.242Z,98694.72
2023-04-27T09:34:41.952Z,98689.94
2023-04-27T09:37:44.941Z,98688.91
2023-04-27T09:40:47.823Z,98685.47
2023-04-27T09:43:50.359Z,98694.50
2023-04-27T09:46:54.081Z,98694.59
2023-04-27T09:50:00.762Z,98690.56
2023-04-27T09:53:03.969Z,98680.84
2023-04-27T09:56:22.260Z,98684.13
2023-04-27T09:59:47.918Z,98678.38
2023-04-27T10:02:58.724Z,98678.22
2023-04-27T10:06:33.358Z,98689.22
2023-04-27T10:09:37.815Z,98677.19
2023-04-27T10:12:40.690Z,98681.81
2023-04-27T10:15:43.275Z,98672.84
2023-04-27T10:18:52.943Z,98687.75
2023-04-27T10:22:00.482Z,98679.97
2023-04-27T10:25:14.458Z,98670.59
2023-04-27T10:28:17.885Z,98676.63
2023-04-27T10:31:20.276Z,98678.66
2023-04-27T10:34:22.899Z,98678.66
2023-04-27T10:37:39.673Z,98678.47
2023-04-27T10:40:42.541Z,98668.50
2023-04-27T10:43:45.295Z,98664.34
2023-04-27T10:46:52.048Z,98657.50
2023-04-27T10:49:55.274Z,98655.84
2023-04-27T10:53:03.550Z,98650.00
2023-04-27T10:56:07.897Z,98657.25
2023-04-27T10:59:10.483Z,98661.69
2023-04-27T11:02:13.114Z,98664.50
2023-04-27T11:05:19.724Z,98661.88
2023-04-27T11:08:24.314Z,98657.63
2023-04-27T11:11:26.852Z,98660.38
2023-04-27T11:14:30.349Z,98651.91
2023-04-27T11:17:33.433Z,98646.75
2023-04-27T11:20:36.099Z,98645.53
2023-04-27T11:23:40.053Z,98647.53
2023-04-27T11:26:42.649Z,98648.75
2023-04-27T11:29:45.757Z,98641.81
2023-04-27T11:32:48.683Z,98635.63
2023-04-27T11:35:51.451Z,98636.00
2023-04-27T11:39:00.104Z,98630.28
2023-04-27T11:42:16.474Z,98634.38
2023-04-27T11:45:19.007Z,98645.88
2023-04-27T11:48:22.778Z,98649.50
2023-04-27T11:51:26.923Z,98642.66
2023-04-27T11:54:31.276Z,98651.75
2023-04-27T11:57:36.186Z,98644.56
2023-04-27T12:00:38.749Z,98644.38
2023-04-27T12:03:41.782Z,98638.13
2023-04-27T12:06:44.235Z,98633.72
2023-04-27T12:09:48.385Z,98629.72
2023-04-27T12:12:50.968Z,98623.75
2023-04-27T12:15:53.500Z,98625.84
2023-04-27T12:18:56.144Z,98621.19
2023-04-27T12:21:59.130Z,98625.53
2023-04-27T12:25:03.055Z,98628.69
2023-04-27T12:28:06.170Z,98622.41
2023-04-27T12:31:08.835Z,98618.44
2023-04-27T12:34:11.707Z,98621.13
2023-04-27T12:37:14.409Z,98620.50
2023-04-27T12:40:18.441Z,98608.44
2023-04-27T12:43:21.046Z,98612.56
2023-04-27T12:46:23.654Z,98609.09
2023-04-27T12:49:27.404Z,98612.13
2023-04-27T12:52:30.418Z,98600.63
2023-04-27T12:55:34.701Z,98607.81
2023-04-27T12:58:37.428Z,98611.28
2023-04-27T13:01:39.987Z,98602.22
2023-04-27T13:04:42.825Z,98603.34
2023-04-27T13:07:45.535Z,98603.78
2023-04-27T13:10:49.893Z,98597.88
2023-04-27T13:13:52.473Z,98588.16
2023-04-27T13:16:55.126Z,98589.19
2023-04-27T13:19:57.683Z,98602.34
2023-04-27T13:23:00.361Z,98594.59
2023-04-27T13:26:04.287Z,98586.91
2023-04-27T13:29:06.798Z,98591.53
2023-04-27T13:32:09.384Z,98581.34
2023-04-27T13:35:12.252Z,98581.31
2023-04-27T13:38:14.830Z,98588.38
2023-04-27T13:41:18.778Z,98575.53
2023-04-27T13:44:21.593Z,98583.72
2023-04-27T13:47:24.391Z,98576.84
2023-04-27T13:50:26.889Z,98564.47
2023-04-27T13:53:29.399Z,98561.03
2023-04-27T13:56:33.245Z,98559.88
2023-04-27T13:59:35.881Z,98565.78
2023-04-27T14:02:38.713Z,98561.88
2023-04-27T14:05:41.317Z,98565.84
2023-04-27T14:08:43.857Z,98556.97
2023-04-27T14:11:56.364Z,98552.00
2023-04-27T14:15:00.605Z,98553.81
2023-04-27T14:18:03.580Z,98554.75
2023-04-27T14:21:06.194Z,98556.13
2023-04-27T14:24:08.912Z,98543.81
2023-04-27T14:27:12.630Z,98538.63
2023-04-27T14:30:15.640Z,98544.72
2023-04-27T14:33:18.266Z,98538.00
2023-04-27T14:36:20.866Z,98541.75
2023-04-27T14:39:23.400Z,98540.56
2023-04-27T14:42:27.297Z,98526.13
2023-04-27T14:45:39.753Z,98538.38
2023-04-27T14:48:46.639Z,98538.66
2023-04-27T14:51:49.173Z,98538.63
2023-04-27T14:54:51.861Z,98540.00
2023-04-27T14:57:55.731Z,98542.06
2023-04-27T15:00:58.539Z,98547.19
2023-04-27T15:04:01.459Z,98542.13
2023-04-27T15:07:04.024Z,98546.63
2023-04-27T15:10:07.658Z,98550.13
2023-04-27T15:13:11.845Z,98540.31
2023-04-27T15:16:14.722Z,98548.97
2023-04-27T15:19:17.295Z,98547.63
2023-04-27T15:22:19.866Z,98541.63
2023-04-27T15:25:22.780Z,98533.53
2023-04-27T15:28:26.740Z,98529.16
2023-04-27T15:31:29.288Z,98525.78
2023-04-27T15:34:32.023Z,98521.94
2023-04-27T15:37:36.795Z,98523.38
2023-04-27T15:40:39.714Z,98532.19
2023-04-27T15:43:43.619Z,98525.25
2023-04-27T15:46:46.997Z,98528.09
2023-04-27T15:49:57.342Z,98528.91
2023-04-27T15:53:00.554Z,98527.78
2023-04-27T15:56:03.297Z,98525.56
2023-04-27T15:59:08.112Z,98519.63
2023-04-27T16:02:11.169Z,98513.69
2023-04-27T16:05:13.818Z,98510.50
2023-04-27T16:08:16.360Z,98510.44
2023-04-27T16:11:18.920Z,98502.06
2023-04-27T16:14:23.088Z,98498.41
2023-04-27T16:17:25.716Z,98504.81
2023-04-27T16:20:30.818Z,98502.91
2023-04-27T16:23:33.475Z,98495.69
2023-04-27T16:26:35.986Z,98490.91
2023-04-27T16:29:39.890Z,98487.31
2023-04-27T16:32:42.396Z,98485.66
2023-04-27T16:35:45.002Z,98485.03
2023-04-27T16:38:47.526Z,98483.34
2023-04-27T16:41:51.036Z,98485.28
2023-04-27T16:44:55.237Z,98483.44
2023-04-27T16:47:59.752Z,98481.13
2023-04-27T16:51:02.427Z,98488.19
2023-04-27T16:54:05.111Z,98484.81
2023-04-27T16:57:08.095Z,98494.72
2023-04-27T17:00:13.064Z,98482.72
2023-04-27T17:03:15.679Z,98485.09
2023-04-27T17:06:18.365Z,98486.94
2023-04-27T17:09:20.931Z,98490.25
2023-04-27T17:12:23.431Z,98486.28
2023-04-27T17:15:28.692Z,98489.88
2023-04-27T17:18:33.684Z,98470.41
2023-04-27T17:21:36.212Z,98475.41
2023-04-27T17:24:39.351Z,98485.16
2023-04-27T17:27:41.835Z,98485.78
2023-04-27T17:30:45.996Z,98480.44
2023-04-27T17:33:48.524Z,98488.53
2023-04-27T17:36:51.041Z,98479.19
2023-04-27T17:39:54.725Z,98487.81
2023-04-27T17:42:57.860Z,98488.19
2023-04-27T17:46:01.915Z,98479.78
2023-04-27T17:49:12.190Z,98487.63
2023-04-27T17:52:14.950Z,98482.84
2023-04-27T17:55:17.645Z,98485.88
2023-04-27T17:58:20.177Z,98482.91
2023-04-27T18:01:24.380Z,98492.84
2023-04-27T18:04:27.261Z,98475.91
2023-04-27T18:07:29.936Z,98469.25
2023-04-27T18:10:32.567Z,98476.06
2023-04-27T18:13:35.108Z,98483.66
2023-04-27T18:16:39.126Z,98489.78
2023-04-27T18:19:41.720Z,98491.06
2023-04-27T18:22:44.282Z,98495.91
2023-04-27T18:25:46.897Z,98500.22
2023-04-27T18:28:49.496Z,98500.38
2023-04-27T18:31:54.051Z,98504.09
2023-04-27T18:34:56.857Z,98500.81
2023-04-27T18:37:59.393Z,98509.84
2023-04-27T18:41:01.935Z,98509.00
2023-04-27T18:44:05.756Z,98496.88
2023-04-27T18:47:09.718Z,98497.41
2023-04-27T18:50:13.742Z,98497.41
2023-04-27T18:53:16.547Z,98496.22
2023-04-27T18:56:19.308Z,98492.66
2023-04-27T18:59:21.936Z,98495.84
2023-04-27T19:02:26.217Z,98502.44
2023-04-27T19:05:28.900Z,98503.16
2023-04-27T19:08:31.483Z,98510.06
2023-04-27T19:11:33.984Z,98509.31
2023-04-27T19:14:36.544Z,98522.63
2023-04-27T19:17:41.327Z,98514.44
2023-04-27T19:20:43.988Z,98516.53
2023-04-27T19:23:46.603Z,98522.34
2023-04-27T19:26:49.329Z,98524.88
2023-04-27T19:29:53.997Z,98525.22
2023-04-27T19:32:58.101Z,98514.94
2023-04-27T19:36:00.826Z,98517.22
2023-04-27T19:39:03.813Z,98522.28
2023-04-27T19:42:06.496Z,98508.19
2023-04-27T19:45:10.752Z,98494.03
2023-04-27T19:48:14.597Z,98497.56
2023-04-27T19:51:17.159Z,98493.81
2023-04-27T19:54:19.699Z,98494.13
2023-04-27T19:57:22.727Z,98505.91
2023-04-27T20:00:25.559Z,98496.78
2023-04-27T20:03:29.751Z,98500.53
2023-04-27T20:06:33.258Z,98496.44
2023-04-27T20:09:35.975Z,98493.69
2023-04-27T20:12:54.485Z,98490.38
2023-04-27T20:15:59.178Z,98495.19
2023-04-27T20:19:05.276Z,98504.66
2023-04-27T20:22:07.834Z,98498.16
2023-04-27T20:25:10.660Z,98500.06
2023-04-27T20:28:13.284Z,98491.28
2023-04-27T20:31:15.924Z,98493.31
2023-04-27T20:34:19.984Z,98485.31
2023-04-27T20:37:23.181Z,98490.34
2023-04-27T20:40:26.724Z,98487.47
2023-04-27T20:43:29.073Z,98483.47
2023-04-27T20:46:32.013Z,98477.31
2023-04-27T20:49:35.961Z,98469.66
2023-04-27T20:52:38.780Z,98482.13
2023-04-27T20:55:41.510Z,98477.78
2023-04-27T20:58:44.162Z,98478.22
2023-04-27T21:01:46.759Z,98480.28
2023-04-27T21:04:50.952Z,98472.50
2023-04-27T21:07:53.927Z,98470.91
2023-04-27T21:10:57.213Z,98456.72
2023-04-27T21:13:59.740Z,98452.06
2023-04-27T21:17:02.388Z,98459.25
2023-04-27T21:20:07.700Z,98449.63
2023-04-27T21:23:10.432Z,98459.53
2023-04-27T21:26:13.050Z,98458.38
2023-04-27T21:29:16.405Z,98449.94
2023-04-27T21:32:19.066Z,98449.63
2023-04-27T21:35:23.174Z,98446.69
2023-04-27T21:38:25.800Z,98442.47
2023-04-27T21:41:28.336Z,98441.91
2023-04-27T21:44:30.990Z,98439.41
2023-04-27T21:47:33.530Z,98433.94
2023-04-27T21:50:37.557Z,98435.88
2023-04-27T21:53:40.341Z,98428.56
2023-04-27T21:56:42.848Z,98424.19
2023-04-27T21:59:45.352Z,98427.22
2023-04-27T22:02:48.500Z,98422.19
2023-04-27T22:05:52.647Z,98423.53
2023-04-27T22:08:55.271Z,98419.75
2023-04-27T22:11:57.808Z,98422.88
2023-04-27T22:15:00.360Z,98421.94
2023-04-27T22:18:06.615Z,98415.22
2023-04-27T22:21:12.248Z,98418.50
2023-04-27T22:24:15.017Z,98415.34
2023-04-27T22:27:17.761Z,98421.28
2023-04-27T22:30:20.260Z,98427.09
2023-04-27T22:33:22.810Z,98417.53
2023-04-27T22:36:26.749Z,98425.50
2023-04-27T22:39:29.277Z,98423.41
2023-04-27T22:42:31.783Z,98424.44
2023-04-27T22:45:35.274Z,98423.59
2023-04-27T22:48:39.193Z,98421.63
2023-04-27T22:51:43.591Z,98422.06
2023-04-27T22:54:46.093Z,98425.22
2023-04-27T22:57:49.987Z,98417.75
2023-04-27T23:00:52.514Z,98419.81
2023-04-27T23:03:55.155Z,98413.59
2023-04-27T23:06:59.027Z,98414.00
2023-04-27T23:10:02.703Z,98422.50
2023-04-27T23:13:05.274Z,98417.94
2023-04-27T23:16:09.923Z,98409.34
2023-04-27T23:19:12.754Z,98421.47
2023-04-27T23:22:16.716Z,98424.63
2023-04-27T23:25:19.222Z,98426.63
2023-04-27T23:28:22.460Z,98411.56
2023-04-27T23:31:25.082Z,98400.97
2023-04-27T23:34:27.622Z,98409.78
2023-04-27T23:37:31.484Z,98406.63
2023-04-27T23:40:34.045Z,98402.88
2023-04-27T23:43:36.498Z,98397.97
2023-04-27T23:46:39.235Z,98393.09
2023-04-27T23:49:43.915Z,98377.56
2023-04-27T23:52:47.849Z,98374.94
2023-04-27T23:55:50.397Z,98378.13
2023-04-27T23:58:52.898Z,98366.38
